sensor_id;sensor_type;location;lat;lon;timestamp;pressure;altitude;pressure_sealevel;temperature;humidity
76660;BME280;65579;45.534;6.212;2023-05-10T00:00:18;98153.16;;;14.50;52.42
76660;BME280;65579;45.534;6.212;2023-05-10T00:02:43;98152.01;;;14.26;52.41
76660;BME280;65579;45.534;6.212;2023-05-10T00:05:08;98147.14;;;15.44;49.52
76660;BME280;65579;45.534;6.212;2023-05-10T00:07:33;98146.04;;;14.61;50.08
76660;BME280;65579;45.534;6.212;2023-05-10T00:09:58;98145.91;;;13.95;52.96
76660;BME280;65579;45.534;6.212;2023-05-10T00:12:23;98143.31;;;14.06;53.38
76660;BME280;65579;45.534;6.212;2023-05-10T00:14:48;98143.28;;;13.56;54.16
76660;BME280;65579;45.534;6.212;2023-05-10T00:17:13;98146.50;;;13.64;53.77
76660;BME280;65579;45.534;6.212;2023-05-10T00:19:38;98145.62;;;13.38;54.42
76660;BME280;65579;45.534;6.212;2023-05-10T00:22:04;98140.32;;;13.91;54.05
76660;BME280;65579;45.534;6.212;2023-05-10T00:24:29;98153.20;;;14.07;52.49
76660;BME280;65579;45.534;6.212;2023-05-10T00:26:54;98154.73;;;14.05;52.49
76660;BME280;65579;45.534;6.212;2023-05-10T00:29:19;98151.82;;;15.21;52.99
76660;BME280;65579;45.534;6.212;2023-05-10T00:31:44;98152.82;;;14.62;49.32
76660;BME280;65579;45.534;6.212;2023-05-10T00:34:09;98153.76;;;14.83;51.29
76660;BME280;65579;45.534;6.212;2023-05-10T00:36:34;98151.33;;;13.88;50.68
76660;BME280;65579;45.534;6.212;2023-05-10T00:39:00;98151.92;;;14.75;50.61
76660;BME280;65579;45.534;6.212;2023-05-10T00:41:24;98157.96;;;13.95;49.78
76660;BME280;65579;45.534;6.212;2023-05-10T00:43:50;98164.69;;;14.71;48.61
76660;BME280;65579;45.534;6.212;2023-05-10T00:46:15;98172.87;;;15.40;49.18
76660;BME280;65579;45.534;6.212;2023-05-10T00:48:40;98178.28;;;15.04;49.61
76660;BME280;65579;45.534;6.212;2023-05-10T00:51:05;98178.24;;;14.97;48.80
76660;BME280;65579;45.534;6.212;2023-05-10T00:53:31;98179.31;;;15.24;48.27
76660;BME280;65579;45.534;6.212;2023-05-10T00:55:55;98179.10;;;15.35;48.69
76660;BME280;65579;45.534;6.212;2023-05-10T00:58:20;98174.35;;;14.67;49.66
76660;BME280;65579;45.534;6.212;2023-05-10T01:00:46;98169.52;;;15.25;48.90
76660;BME280;65579;45.534;6.212;2023-05-10T01:03:11;98161.01;;;15.22;49.77
76660;BME280;65579;45.534;6.212;2023-05-10T01:05:35;98158.36;;;14.76;50.84
76660;BME280;65579;45.534;6.212;2023-05-10T01:08:01;98151.14;;;14.82;50.76
76660;BME280;65579;45.534;6.212;2023-05-10T01:10:26;98147.44;;;14.92;51.72
76660;BME280;65579;45.534;6.212;2023-05-10T01:12:51;98153.47;;;14.90;50.91
76660;BME280;65579;45.534;6.212;2023-05-10T01:15:17;98162.00;;;15.63;49.24
76660;BME280;65579;45.534;6.212;2023-05-10T01:17:43;98167.31;;;15.23;49.47
76660;BME280;65579;45.534;6.212;2023-05-10T01:20:09;98166.66;;;15.32;49.62
76660;BME280;65579;45.534;6.212;2023-05-10T01:22:51;98160.97;;;14.93;50.24
76660;BME280;65579;45.534;6.212;2023-05-10T01:27:37;98154.87;;;14.90;49.66
76660;BME280;65579;45.534;6.212;2023-05-10T01:30:01;98152.08;;;14.48;50.36
76660;BME280;65579;45.534;6.212;2023-05-10T01:32:16;98154.85;;;15.02;49.08
76660;BME280;65579;45.534;6.212;2023-05-10T01:34:43;98158.26;;;15.27;47.24
76660;BME280;65579;45.534;6.212;2023-05-10T01:37:07;98156.89;;;14.69;48.54
76660;BME280;65579;45.534;6.212;2023-05-10T01:39:32;98151.36;;;14.38;50.26
76660;BME280;65579;45.534;6.212;2023-05-10T01:41:56;98145.09;;;14.49;52.54
76660;BME280;65579;45.534;6.212;2023-05-10T01:44:23;98150.17;;;14.46;52.12
76660;BME280;65579;45.534;6.212;2023-05-10T01:46:43;98156.25;;;14.24;51.39
76660;BME280;65579;45.534;6.212;2023-05-10T01:49:09;98159.72;;;14.51;51.86
76660;BME280;65579;45.534;6.212;2023-05-10T01:51:38;98164.50;;;14.21;51.36
76660;BME280;65579;45.534;6.212;2023-05-10T01:54:01;98171.07;;;15.32;48.99
76660;BME280;65579;45.534;6.212;2023-05-10T01:56:26;98170.41;;;14.79;50.39
76660;BME280;65579;45.534;6.212;2023-05-10T01:58:48;98170.14;;;14.31;50.53
76660;BME280;65579;45.534;6.212;2023-05-10T02:01:14;98167.95;;;15.29;49.77
76660;BME280;65579;45.534;6.212;2023-05-10T02:03:40;98168.31;;;14.55;50.83
76660;BME280;65579;45.534;6.212;2023-05-10T02:06:05;98167.58;;;14.80;50.58
76660;BME280;65579;45.534;6.212;2023-05-10T02:08:29;98166.59;;;14.74;50.27
76660;BME280;65579;45.534;6.212;2023-05-10T02:10:56;98166.19;;;14.45;50.36
76660;BME280;65579;45.534;6.212;2023-05-10T02:13:19;98166.17;;;15.51;48.08
76660;BME280;65579;45.534;6.212;2023-05-10T02:15:48;98167.38;;;14.71;50.71
76660;BME280;65579;45.534;6.212;2023-05-10T02:18:11;98165.45;;;14.77;50.18
76660;BME280;65579;45.534;6.212;2023-05-10T02:20:35;98163.49;;;14.50;50.49
76660;BME280;65579;45.534;6.212;2023-05-10T02:23:01;98162.13;;;14.64;51.08
76660;BME280;65579;45.534;6.212;2023-05-10T02:25:25;98159.79;;;14.89;50.25
76660;BME280;65579;45.534;6.212;2023-05-10T02:27:51;98158.31;;;14.59;50.18
76660;BME280;65579;45.534;6.212;2023-05-10T02:30:16;98158.24;;;14.64;50.77
76660;BME280;65579;45.534;6.212;2023-05-10T02:32:41;98153.02;;;14.35;51.60
76660;BME280;65579;45.534;6.212;2023-05-10T02:35:06;98148.17;;;14.50;51.53
76660;BME280;65579;45.534;6.212;2023-05-10T02:37:32;98142.23;;;14.83;50.72
76660;BME280;65579;45.534;6.212;2023-05-10T02:39:56;98140.54;;;14.64;51.14
76660;BME280;65579;45.534;6.212;2023-05-10T02:42:25;98146.59;;;14.56;51.24
76660;BME280;65579;45.534;6.212;2023-05-10T02:44:48;98150.10;;;14.40;51.93
76660;BME280;65579;45.534;6.212;2023-05-10T02:47:12;98147.31;;;14.39;51.27
76660;BME280;65579;45.534;6.212;2023-05-10T02:49:37;98143.88;;;14.71;50.43
76660;BME280;65579;45.534;6.212;2023-05-10T02:52:05;98143.23;;;14.43;50.73
76660;BME280;65579;45.534;6.212;2023-05-10T02:54:30;98141.83;;;14.20;51.59
76660;BME280;65579;45.534;6.212;2023-05-10T02:56:56;98142.80;;;14.59;51.23
76660;BME280;65579;45.534;6.212;2023-05-10T02:59:17;98143.18;;;14.71;50.31
76660;BME280;65579;45.534;6.212;2023-05-10T03:01:43;98144.21;;;14.31;51.00
76660;BME280;65579;45.534;6.212;2023-05-10T03:04:08;98143.60;;;14.73;50.23
76660;BME280;65579;45.534;6.212;2023-05-10T03:06:33;98143.56;;;14.40;50.32
76660;BME280;65579;45.534;6.212;2023-05-10T03:08:58;98143.22;;;14.63;50.75
76660;BME280;65579;45.534;6.212;2023-05-10T03:11:32;98141.32;;;14.75;49.72
76660;BME280;65579;45.534;6.212;2023-05-10T03:13:56;98137.96;;;14.48;50.42
76660;BME280;65579;45.534;6.212;2023-05-10T03:16:16;98137.83;;;14.59;50.60
76660;BME280;65579;45.534;6.212;2023-05-10T03:18:43;98137.58;;;14.81;49.82
76660;BME280;65579;45.534;6.212;2023-05-10T03:21:05;98139.52;;;14.88;50.65
76660;BME280;65579;45.534;6.212;2023-05-10T03:23:34;98136.29;;;14.88;49.39
76660;BME280;65579;45.534;6.212;2023-05-10T03:25:54;98138.64;;;14.99;49.79
76660;BME280;65579;45.534;6.212;2023-05-10T03:28:20;98140.13;;;14.99;50.13
76660;BME280;65579;45.534;6.212;2023-05-10T03:30:45;98141.16;;;14.49;50.47
76660;BME280;65579;45.534;6.212;2023-05-10T03:33:10;98138.62;;;14.73;50.16
76660;BME280;65579;45.534;6.212;2023-05-10T03:35:35;98137.88;;;14.82;50.44
76660;BME280;65579;45.534;6.212;2023-05-10T03:38:00;98137.21;;;15.04;49.64
76660;BME280;65579;45.534;6.212;2023-05-10T03:40:26;98133.10;;;14.43;50.95
76660;BME280;65579;45.534;6.212;2023-05-10T03:42:50;98134.03;;;14.73;49.72
76660;BME280;65579;45.534;6.212;2023-05-10T03:45:15;98130.03;;;14.42;51.18
76660;BME280;65579;45.534;6.212;2023-05-10T03:47:40;98131.41;;;14.06;53.00
76660;BME280;65579;45.534;6.212;2023-05-10T03:50:07;98134.17;;;14.33;51.73
76660;BME280;65579;45.534;6.212;2023-05-10T03:52:31;98135.92;;;14.42;51.01
76660;BME280;65579;45.534;6.212;2023-05-10T03:54:56;98138.19;;;13.83;52.92
76660;BME280;65579;45.534;6.212;2023-05-10T03:57:21;98147.24;;;13.30;52.20
76660;BME280;65579;45.534;6.212;2023-05-10T03:59:46;98148.14;;;13.36;53.06
76660;BME280;65579;45.534;6.212;2023-05-10T04:02:11;98147.93;;;13.84;52.78
76660;BME280;65579;45.534;6.212;2023-05-10T04:04:36;98142.93;;;13.85;52.78
76660;BME280;65579;45.534;6.212;2023-05-10T04:07:01;98141.36;;;13.80;51.32
76660;BME280;65579;45.534;6.212;2023-05-10T04:09:27;98141.56;;;13.65;51.84
76660;BME280;65579;45.534;6.212;2023-05-10T04:11:52;98138.99;;;13.55;51.11
76660;BME280;65579;45.534;6.212;2023-05-10T04:14:17;98136.24;;;14.72;50.16
76660;BME280;65579;45.534;6.212;2023-05-10T04:16:42;98135.20;;;13.83;51.76
76660;BME280;65579;45.534;6.212;2023-05-10T04:19:07;98137.30;;;15.25;49.44
76660;BME280;65579;45.534;6.212;2023-05-10T04:21:32;98139.80;;;13.46;52.27
76660;BME280;65579;45.534;6.212;2023-05-10T04:23:57;98148.16;;;12.81;54.74
76660;BME280;65579;45.534;6.212;2023-05-10T04:26:23;98144.23;;;12.02;56.89
76660;BME280;65579;45.534;6.212;2023-05-10T04:28:48;98143.19;;;12.77;55.24
76660;BME280;65579;45.534;6.212;2023-05-10T04:31:13;98141.29;;;13.02;55.57
76660;BME280;65579;45.534;6.212;2023-05-10T04:33:38;98138.55;;;13.24;54.28
76660;BME280;65579;45.534;6.212;2023-05-10T04:36:04;98139.98;;;13.02;54.42
76660;BME280;65579;45.534;6.212;2023-05-10T04:38:29;98134.86;;;13.03;53.07
76660;BME280;65579;45.534;6.212;2023-05-10T04:40:54;98135.19;;;13.40;52.97
76660;BME280;65579;45.534;6.212;2023-05-10T04:43:19;98136.26;;;13.15;52.87
76660;BME280;65579;45.534;6.212;2023-05-10T04:45:44;98141.09;;;13.05;53.32
76660;BME280;65579;45.534;6.212;2023-05-10T04:48:09;98142.03;;;13.71;52.83
76660;BME280;65579;45.534;6.212;2023-05-10T04:50:34;98141.83;;;13.45;53.49
76660;BME280;65579;45.534;6.212;2023-05-10T04:52:59;98138.36;;;13.56;52.90
76660;BME280;65579;45.534;6.212;2023-05-10T04:55:25;98140.76;;;14.21;50.99
76660;BME280;65579;45.534;6.212;2023-05-10T04:57:50;98144.86;;;14.66;51.74
76660;BME280;65579;45.534;6.212;2023-05-10T05:00:15;98145.64;;;14.84;50.26
76660;BME280;65579;45.534;6.212;2023-05-10T05:02:42;98146.39;;;15.33;48.21
76660;BME280;65579;45.534;6.212;2023-05-10T05:05:06;98149.50;;;15.39;49.03
76660;BME280;65579;45.534;6.212;2023-05-10T05:07:31;98152.12;;;14.75;49.69
76660;BME280;65579;45.534;6.212;2023-05-10T05:09:55;98153.77;;;14.31;51.59
76660;BME280;65579;45.534;6.212;2023-05-10T05:12:20;98154.16;;;14.97;50.67
76660;BME280;65579;45.534;6.212;2023-05-10T05:14:46;98153.59;;;14.86;50.15
76660;BME280;65579;45.534;6.212;2023-05-10T05:17:11;98151.64;;;13.88;50.06
76660;BME280;65579;45.534;6.212;2023-05-10T05:19:36;98154.41;;;14.80;48.82
76660;BME280;65579;45.534;6.212;2023-05-10T05:22:01;98157.53;;;15.14;48.53
76660;BME280;65579;45.534;6.212;2023-05-10T05:24:27;98153.63;;;14.76;47.80
76660;BME280;65579;45.534;6.212;2023-05-10T05:26:52;98153.44;;;15.09;48.68
76660;BME280;65579;45.534;6.212;2023-05-10T05:29:17;98161.39;;;15.24;49.34
76660;BME280;65579;45.534;6.212;2023-05-10T05:31:43;98157.80;;;15.10;49.99
76660;BME280;65579;45.534;6.212;2023-05-10T05:34:08;98161.81;;;14.73;49.84
76660;BME280;65579;45.534;6.212;2023-05-10T05:36:36;98161.15;;;14.73;48.63
76660;BME280;65579;45.534;6.212;2023-05-10T05:38:58;98167.48;;;13.88;50.42
76660;BME280;65579;45.534;6.212;2023-05-10T05:41:23;98165.88;;;14.36;49.12
76660;BME280;65579;45.534;6.212;2023-05-10T05:43:48;98170.08;;;14.28;50.30
76660;BME280;65579;45.534;6.212;2023-05-10T05:46:13;98169.24;;;14.79;50.15
76660;BME280;65579;45.534;6.212;2023-05-10T05:48:39;98173.75;;;14.46;49.48
76660;BME280;65579;45.534;6.212;2023-05-10T05:51:04;98174.05;;;14.75;50.01
76660;BME280;65579;45.534;6.212;2023-05-10T05:53:30;98175.47;;;14.96;49.70
76660;BME280;65579;45.534;6.212;2023-05-10T05:55:55;98171.25;;;14.64;48.64
76660;BME280;65579;45.534;6.212;2023-05-10T05:58:20;98177.76;;;14.00;49.68
76660;BME280;65579;45.534;6.212;2023-05-10T06:00:45;98175.07;;;14.38;50.67
76660;BME280;65579;45.534;6.212;2023-05-10T06:03:10;98178.65;;;13.35;51.92
76660;BME280;65579;45.534;6.212;2023-05-10T06:05:35;98178.53;;;13.63;51.16
76660;BME280;65579;45.534;6.212;2023-05-10T06:08:00;98173.59;;;13.73;51.53
76660;BME280;65579;45.534;6.212;2023-05-10T06:10:25;98174.06;;;12.90;53.42
76660;BME280;65579;45.534;6.212;2023-05-10T06:12:50;98172.23;;;11.97;57.41
76660;BME280;65579;45.534;6.212;2023-05-10T06:15:16;98172.97;;;12.14;56.89
76660;BME280;65579;45.534;6.212;2023-05-10T06:17:41;98170.88;;;11.91;58.70
76660;BME280;65579;45.534;6.212;2023-05-10T06:20:07;98169.83;;;12.11;57.02
76660;BME280;65579;45.534;6.212;2023-05-10T06:22:32;98175.43;;;11.82;58.30
76660;BME280;65579;45.534;6.212;2023-05-10T06:24:56;98177.55;;;11.28;59.89
76660;BME280;65579;45.534;6.212;2023-05-10T06:27:22;98181.95;;;11.68;59.63
76660;BME280;65579;45.534;6.212;2023-05-10T06:29:47;98181.85;;;12.31;57.31
76660;BME280;65579;45.534;6.212;2023-05-10T06:32:12;98185.54;;;12.33;57.04
76660;BME280;65579;45.534;6.212;2023-05-10T06:34:37;98189.05;;;12.87;55.22
76660;BME280;65579;45.534;6.212;2023-05-10T06:37:03;98188.14;;;12.62;56.94
76660;BME280;65579;45.534;6.212;2023-05-10T06:39:28;98192.05;;;11.89;57.78
76660;BME280;65579;45.534;6.212;2023-05-10T06:41:53;98194.20;;;12.67;55.35
76660;BME280;65579;45.534;6.212;2023-05-10T06:44:18;98193.93;;;11.85;57.13
76660;BME280;65579;45.534;6.212;2023-05-10T06:46:43;98196.24;;;12.71;56.48
76660;BME280;65579;45.534;6.212;2023-05-10T06:49:09;98205.89;;;13.47;53.59
76660;BME280;65579;45.534;6.212;2023-05-10T06:51:34;98204.90;;;12.44;56.39
76660;BME280;65579;45.534;6.212;2023-05-10T06:53:59;98210.05;;;12.78;56.52
76660;BME280;65579;45.534;6.212;2023-05-10T06:56:24;98209.22;;;12.20;57.89
76660;BME280;65579;45.534;6.212;2023-05-10T06:58:49;98206.40;;;12.03;56.58
76660;BME280;65579;45.534;6.212;2023-05-10T07:01:14;98210.62;;;12.86;55.57
76660;BME280;65579;45.534;6.212;2023-05-10T07:03:40;98208.28;;;11.80;58.29
76660;BME280;65579;45.534;6.212;2023-05-10T07:06:05;98208.78;;;11.83;58.84
76660;BME280;65579;45.534;6.212;2023-05-10T07:08:31;98211.06;;;11.84;57.19
76660;BME280;65579;45.534;6.212;2023-05-10T07:11:00;98213.24;;;12.76;55.15
76660;BME280;65579;45.534;6.212;2023-05-10T07:13:21;98217.33;;;12.94;55.04
76660;BME280;65579;45.534;6.212;2023-05-10T07:15:46;98216.69;;;12.18;58.78
76660;BME280;65579;45.534;6.212;2023-05-10T07:18:11;98219.90;;;11.58;59.44
76660;BME280;65579;45.534;6.212;2023-05-10T07:20:37;98217.15;;;12.67;57.40
76660;BME280;65579;45.534;6.212;2023-05-10T07:23:02;98212.09;;;12.95;57.49
76660;BME280;65579;45.534;6.212;2023-05-10T07:25:27;98217.96;;;13.27;55.24
76660;BME280;65579;45.534;6.212;2023-05-10T07:27:56;98218.74;;;13.56;54.51
76660;BME280;65579;45.534;6.212;2023-05-10T07:30:21;98221.44;;;13.12;54.88
76660;BME280;65579;45.534;6.212;2023-05-10T07:32:46;98218.68;;;12.67;53.54
76660;BME280;65579;45.534;6.212;2023-05-10T07:35:17;98220.38;;;12.53;55.91
76660;BME280;65579;45.534;6.212;2023-05-10T07:37:37;98225.72;;;12.81;52.11
76660;BME280;65579;45.534;6.212;2023-05-10T07:39:58;98220.80;;;12.60;53.11
76660;BME280;65579;45.534;6.212;2023-05-10T07:42:23;98226.43;;;12.88;53.70
76660;BME280;65579;45.534;6.212;2023-05-10T07:44:48;98225.34;;;12.49;53.01
76660;BME280;65579;45.534;6.212;2023-05-10T07:47:13;98229.79;;;13.01;55.07
76660;BME280;65579;45.534;6.212;2023-05-10T07:49:38;98229.03;;;13.34;52.38
76660;BME280;65579;45.534;6.212;2023-05-10T07:52:04;98225.64;;;12.84;53.46
76660;BME280;65579;45.534;6.212;2023-05-10T07:54:29;98228.44;;;12.84;54.55
76660;BME280;65579;45.534;6.212;2023-05-10T07:56:54;98233.07;;;12.80;52.23
76660;BME280;65579;45.534;6.212;2023-05-10T07:59:19;98228.42;;;12.61;51.61
76660;BME280;65579;45.534;6.212;2023-05-10T08:01:44;98232.07;;;13.00;52.75
76660;BME280;65579;45.534;6.212;2023-05-10T08:04:09;98239.15;;;12.84;51.35
76660;BME280;65579;45.534;6.212;2023-05-10T08:06:34;98240.74;;;13.05;48.75
76660;BME280;65579;45.534;6.212;2023-05-10T08:09:00;98244.49;;;13.69;50.02
76660;BME280;65579;45.534;6.212;2023-05-10T08:11:25;98243.79;;;13.47;49.78
76660;BME280;65579;45.534;6.212;2023-05-10T08:13:51;98248.37;;;13.83;47.73
76660;BME280;65579;45.534;6.212;2023-05-10T08:16:16;98251.04;;;13.69;45.75
76660;BME280;65579;45.534;6.212;2023-05-10T08:18:41;98245.12;;;13.16;45.88
76660;BME280;65579;45.534;6.212;2023-05-10T08:21:06;98249.41;;;13.41;48.13
76660;BME280;65579;45.534;6.212;2023-05-10T08:23:32;98249.15;;;13.49;48.83
76660;BME280;65579;45.534;6.212;2023-05-10T08:25:56;98249.15;;;13.50;49.54
76660;BME280;65579;45.534;6.212;2023-05-10T08:28:21;98246.18;;;13.93;48.48
76660;BME280;65579;45.534;6.212;2023-05-10T08:30:46;98245.01;;;14.02;47.26
76660;BME280;65579;45.534;6.212;2023-05-10T08:33:11;98248.22;;;13.74;46.30
76660;BME280;65579;45.534;6.212;2023-05-10T08:35:37;98254.59;;;13.78;48.21
76660;BME280;65579;45.534;6.212;2023-05-10T08:38:02;98255.03;;;15.25;44.91
76660;BME280;65579;45.534;6.212;2023-05-10T08:40:27;98264.00;;;14.01;46.30
76660;BME280;65579;45.534;6.212;2023-05-10T08:42:56;98264.80;;;14.05;47.16
76660;BME280;65579;45.534;6.212;2023-05-10T08:45:19;98260.31;;;13.21;48.73
76660;BME280;65579;45.534;6.212;2023-05-10T08:47:42;98266.00;;;13.09;48.59
76660;BME280;65579;45.534;6.212;2023-05-10T08:50:08;98268.67;;;13.00;50.78
76660;BME280;65579;45.534;6.212;2023-05-10T08:52:42;98268.39;;;12.45;49.25
76660;BME280;65579;45.534;6.212;2023-05-10T08:54:58;98272.46;;;12.74;51.82
76660;BME280;65579;45.534;6.212;2023-05-10T08:57:23;98275.45;;;13.21;50.87
76660;BME280;65579;45.534;6.212;2023-05-10T08:59:50;98275.85;;;13.12;50.46
76660;BME280;65579;45.534;6.212;2023-05-10T09:02:14;98280.73;;;13.98;50.12
76660;BME280;65579;45.534;6.212;2023-05-10T09:04:39;98277.20;;;13.82;50.16
76660;BME280;65579;45.534;6.212;2023-05-10T09:07:04;98275.10;;;14.04;47.47
76660;BME280;65579;45.534;6.212;2023-05-10T09:09:29;98275.99;;;13.04;49.86
76660;BME280;65579;45.534;6.212;2023-05-10T09:11:55;98283.49;;;13.75;47.52
76660;BME280;65579;45.534;6.212;2023-05-10T09:14:20;98283.98;;;14.04;47.01
76660;BME280;65579;45.534;6.212;2023-05-10T09:16:45;98283.76;;;13.62;46.46
76660;BME280;65579;45.534;6.212;2023-05-10T09:19:10;98284.03;;;13.44;48.56
76660;BME280;65579;45.534;6.212;2023-05-10T09:21:37;98285.26;;;13.40;47.38
76660;BME280;65579;45.534;6.212;2023-05-10T09:24:03;98288.74;;;13.54;47.03
76660;BME280;65579;45.534;6.212;2023-05-10T09:26:25;98289.26;;;14.08;44.91
76660;BME280;65579;45.534;6.212;2023-05-10T09:28:55;98293.40;;;14.47;46.77
76660;BME280;65579;45.534;6.212;2023-05-10T09:31:16;98289.68;;;15.02;43.89
76660;BME280;65579;45.534;6.212;2023-05-10T09:33:47;98292.95;;;16.04;42.12
76660;BME280;65579;45.534;6.212;2023-05-10T09:36:08;98295.93;;;16.01;42.88
76660;BME280;65579;45.534;6.212;2023-05-10T09:40:57;98293.83;;;16.45;42.63
76660;BME280;65579;45.534;6.212;2023-05-10T09:43:22;98294.28;;;15.52;42.66
76660;BME280;65579;45.534;6.212;2023-05-10T09:45:49;98294.58;;;15.17;43.52
76660;BME280;65579;45.534;6.212;2023-05-10T09:48:14;98297.66;;;15.49;41.14
76660;BME280;65579;45.534;6.212;2023-05-10T09:50:39;98298.16;;;15.65;42.57
76660;BME280;65579;45.534;6.212;2023-05-10T09:53:06;98298.53;;;15.56;42.68
76660;BME280;65579;45.534;6.212;2023-05-10T09:55:41;98293.71;;;15.38;41.84
76660;BME280;65579;45.534;6.212;2023-05-10T09:58:04;98301.21;;;15.33;41.26
76660;BME280;65579;45.534;6.212;2023-05-10T10:00:22;98296.36;;;15.48;41.50
76660;BME280;65579;45.534;6.212;2023-05-10T10:02:44;98300.34;;;14.72;43.64
76660;BME280;65579;45.534;6.212;2023-05-10T10:05:09;98301.47;;;14.71;43.35
76660;BME280;65579;45.534;6.212;2023-05-10T10:07:39;98298.75;;;14.74;44.50
76660;BME280;65579;45.534;6.212;2023-05-10T10:10:01;98300.92;;;14.35;41.80
76660;BME280;65579;45.534;6.212;2023-05-10T10:12:27;98299.44;;;14.23;42.98
76660;BME280;65579;45.534;6.212;2023-05-10T10:14:52;98297.32;;;15.02;42.58
76660;BME280;65579;45.534;6.212;2023-05-10T10:17:16;98289.63;;;15.10;44.07
76660;BME280;65579;45.534;6.212;2023-05-10T10:19:42;98292.93;;;14.47;42.27
76660;BME280;65579;45.534;6.212;2023-05-10T10:22:12;98290.26;;;14.56;43.14
76660;BME280;65579;45.534;6.212;2023-05-10T10:24:32;98288.53;;;15.49;44.39
76660;BME280;65579;45.534;6.212;2023-05-10T10:26:59;98288.87;;;15.37;40.93
76660;BME280;65579;45.534;6.212;2023-05-10T10:29:30;98291.89;;;16.02;40.89
76660;BME280;65579;45.534;6.212;2023-05-10T10:31:51;98288.81;;;16.51;40.20
76660;BME280;65579;45.534;6.212;2023-05-10T10:34:22;98285.74;;;16.53;40.79
76660;BME280;65579;45.534;6.212;2023-05-10T10:36:45;98282.97;;;16.61;39.88
76660;BME280;65579;45.534;6.212;2023-05-10T10:39:01;98281.53;;;17.65;37.03
76660;BME280;65579;45.534;6.212;2023-05-10T10:41:32;98279.75;;;17.10;38.37
76660;BME280;65579;45.534;6.212;2023-05-10T10:46:17;98279.91;;;16.72;37.63
76660;BME280;65579;45.534;6.212;2023-05-10T10:51:06;98277.41;;;16.87;39.07
76660;BME280;65579;45.534;6.212;2023-05-10T10:53:32;98274.59;;;17.51;39.42
76660;BME280;65579;45.534;6.212;2023-05-10T10:56:06;98274.86;;;17.35;41.38
76660;BME280;65579;45.534;6.212;2023-05-10T10:58:30;98272.56;;;18.14;35.82
76660;BME280;65579;45.534;6.212;2023-05-10T11:00:47;98267.68;;;18.19;35.24
76660;BME280;65579;45.534;6.212;2023-05-10T11:03:14;98261.66;;;17.22;37.85
76660;BME280;65579;45.534;6.212;2023-05-10T11:05:42;98258.15;;;17.60;37.04
76660;BME280;65579;45.534;6.212;2023-05-10T11:08:08;98259.32;;;16.69;40.56
76660;BME280;65579;45.534;6.212;2023-05-10T11:10:28;98255.72;;;17.61;37.71
76660;BME280;65579;45.534;6.212;2023-05-10T11:12:59;98249.00;;;16.35;40.06
76660;BME280;65579;45.534;6.212;2023-05-10T11:15:17;98257.16;;;17.03;38.69
76660;BME280;65579;45.534;6.212;2023-05-10T11:17:42;98256.38;;;16.58;37.25
76660;BME280;65579;45.534;6.212;2023-05-10T11:20:08;98262.70;;;16.20;38.43
76660;BME280;65579;45.534;6.212;2023-05-10T11:24:57;98254.21;;;16.67;36.78
76660;BME280;65579;45.534;6.212;2023-05-10T11:27:22;98270.80;;;16.37;38.85
76660;BME280;65579;45.534;6.212;2023-05-10T11:29:51;98275.01;;;15.88;35.14
76660;BME280;65579;45.534;6.212;2023-05-10T11:32:12;98281.18;;;15.58;36.33
76660;BME280;65579;45.534;6.212;2023-05-10T11:34:39;98288.89;;;15.88;37.58
76660;BME280;65579;45.534;6.212;2023-05-10T11:37:05;98295.19;;;16.18;36.49
76660;BME280;65579;45.534;6.212;2023-05-10T11:39:29;98292.80;;;16.91;37.79
76660;BME280;65579;45.534;6.212;2023-05-10T11:41:55;98289.47;;;16.44;39.39
76660;BME280;65579;45.534;6.212;2023-05-10T11:44:18;98286.74;;;16.89;40.03
76660;BME280;65579;45.534;6.212;2023-05-10T11:46:43;98294.28;;;16.90;39.22
76660;BME280;65579;45.534;6.212;2023-05-10T11:49:08;98294.61;;;16.73;37.57
76660;BME280;65579;45.534;6.212;2023-05-10T11:51:34;98292.45;;;16.53;37.27
76660;BME280;65579;45.534;6.212;2023-05-10T11:53:58;98293.12;;;16.89;36.59
76660;BME280;65579;45.534;6.212;2023-05-10T11:56:23;98283.10;;;17.76;36.79
76660;BME280;65579;45.534;6.212;2023-05-10T11:58:54;98278.07;;;18.91;38.06
76660;BME280;65579;45.534;6.212;2023-05-10T12:01:13;98277.51;;;19.12;37.77
76660;BME280;65579;45.534;6.212;2023-05-10T12:03:40;98280.07;;;19.06;36.47
76660;BME280;65579;45.534;6.212;2023-05-10T12:06:03;98278.34;;;20.21;34.07
76660;BME280;65579;45.534;6.212;2023-05-10T12:08:29;98277.19;;;19.93;29.06
76660;BME280;65579;45.534;6.212;2023-05-10T12:11:05;98286.37;;;18.35;30.91
76660;BME280;65579;45.534;6.212;2023-05-10T12:13:19;98284.39;;;18.39;32.31
76660;BME280;65579;45.534;6.212;2023-05-10T12:15:43;98279.50;;;18.42;32.20
76660;BME280;65579;45.534;6.212;2023-05-10T12:18:09;98277.93;;;18.49;32.89
76660;BME280;65579;45.534;6.212;2023-05-10T12:20:33;98275.24;;;18.19;35.21
76660;BME280;65579;45.534;6.212;2023-05-10T12:23:00;98270.40;;;18.91;33.03
76660;BME280;65579;45.534;6.212;2023-05-10T12:25:28;98269.83;;;18.44;34.58
76660;BME280;65579;45.534;6.212;2023-05-10T12:27:50;98265.32;;;18.45;34.43
76660;BME280;65579;45.534;6.212;2023-05-10T12:30:19;98262.22;;;18.30;33.89
76660;BME280;65579;45.534;6.212;2023-05-10T12:32:39;98260.52;;;17.46;34.44
76660;BME280;65579;45.534;6.212;2023-05-10T12:35:04;98259.42;;;18.83;34.82
76660;BME280;65579;45.534;6.212;2023-05-10T12:37:28;98257.48;;;18.44;31.74
76660;BME280;65579;45.534;6.212;2023-05-10T12:39:53;98256.45;;;17.74;33.80
76660;BME280;65579;45.534;6.212;2023-05-10T12:42:18;98256.54;;;17.91;35.12
76660;BME280;65579;45.534;6.212;2023-05-10T12:44:44;98250.96;;;17.05;35.67
76660;BME280;65579;45.534;6.212;2023-05-10T12:47:08;98250.43;;;18.44;34.38
76660;BME280;65579;45.534;6.212;2023-05-10T12:49:33;98249.53;;;18.44;34.96
76660;BME280;65579;45.534;6.212;2023-05-10T12:51:59;98246.39;;;17.89;33.34
76660;BME280;65579;45.534;6.212;2023-05-10T12:54:24;98245.75;;;16.74;37.04
76660;BME280;65579;45.534;6.212;2023-05-10T12:56:48;98244.64;;;16.79;35.32
76660;BME280;65579;45.534;6.212;2023-05-10T12:59:14;98240.36;;;16.82;37.37